Latest Weather Observations for Ferny Creek

IDV60901

Issued at 11:11 am EDT Saturday 19 January 2019 (issued every 10 minutes, with the page automatically refreshed every 10 minutes)

About weather observations | Map of Melbourne area stations | Latest observations for Melbourne area | Other Formats
Station Details ID: 086266 Name: FERNY CREEK Lat: -37.87 Lon: 145.35 Height: 512.9 m
Data from the previous 72 hours. | See also: Recent months at Ferny Creek
Date/Time
EDT
Temp
°C
App
Temp
°C
Dew
Point
°C
Rel
Hum
%
Delta-T
°C
Wind Press
QNH
hPa
Press
MSL
hPa
Rain since
9am
mm
Dir  Spd
km/h
Gust
km/h
Spd
kts
Gust
kts
19/11:00am 16.4 14.9 9.3 63 3.8 WSW 7 13 4 7 1021.9 1020.4 0.0
19/10:30am 15.3 14.7 10.3 72 2.7 SSW 4 7 2 4 1021.8 1020.3 0.0
19/10:00am 14.9 14.1 9.7 71 2.8 WSW 4 9 2 5 1021.8 1020.3 0.0
19/09:30am 14.4 13.2 9.6 73 2.5 SSW 6 9 3 5 1021.5 1020.0 0.0
19/09:00am 14.7 13.8 10.5 76 2.3 SW 6 15 3 8 1021.3 1019.8 2.2
19/08:30am 14.0 12.9 9.8 76 2.2 SSE 6 9 3 5 1020.8 1019.4 2.2
19/08:00am 13.8 13.0 9.5 75 2.3 ESE 4 13 2 7 1020.3 1018.9 2.2
19/07:30am 14.0 13.1 9.4 74 2.4 E 4 7 2 4 1020.0 1018.5 2.2
19/07:00am 12.9 12.0 9.2 78 1.9 ESE 4 7 2 4 1019.7 1018.2 2.2
19/06:30am 12.4 11.7 8.7 78 1.9 ESE 2 6 1 3 1019.2 1017.7 2.2
19/06:00am 12.5 11.9 9.1 80 1.8 ENE 2 6 1 3 1018.9 1017.4 2.2
19/05:30am 12.6 12.1 9.4 81 1.7 SE 2 6 1 3 1018.5 1017.0 2.2
19/05:00am 12.8 12.7 10.9 88 1.0 SE 2 4 1 2 1018.3 1016.8 2.2
19/04:30am 13.0 12.7 11.4 90 0.9 S 4 6 2 3 1018.0 1016.5 2.2
19/04:00am 13.2 13.4 11.8 91 0.8 SSW 2 6 1 3 1018.1 1016.6 2.2
19/03:30am 13.5 13.8 12.1 91 0.8 SE 2 9 1 5 1018.1 1016.6 2.2
19/03:00am 13.8 13.8 12.4 91 0.8 W 4 13 2 7 1018.2 1016.7 2.2
19/02:30am 14.0 14.1 12.6 91 0.8 WSW 4 9 2 5 1018.2 1016.7 2.0
19/02:00am 14.2 14.6 12.6 90 0.9 SSW 2 6 1 3 1018.0 1016.5 2.0
19/01:30am 14.2 14.6 12.4 89 1.0 SE 2 6 1 3 1018.0 1016.5 2.0
19/01:00am 14.3 14.3 12.5 89 1.0 S 4 7 2 4 1018.2 1016.7 2.0
19/12:30am 14.5 14.5 12.4 87 1.2 S 4 9 2 5 1017.8 1016.3 2.0
19/12:00am 14.6 15.2 11.9 84 1.5 CALM 0 4 0 2 1017.6 1016.1 2.0
 
Date/Time
EDT
Temp
°C
App
Temp
°C
Dew
Point
°C
Rel
Hum
%
Delta-T
°C
Wind Press
QNH
hPa
Press
MSL
hPa
Rain since
9am
mm
Dir  Spd
km/h
Gust
km/h
Spd
kts
Gust
kts
18/11:30pm 14.2 14.3 11.5 84 1.5 SW 2 6 1 3 1017.5 1016.0 2.0
18/11:00pm 14.7 14.6 10.9 78 2.1 SSE 2 7 1 4 1017.8 1016.3 2.0
18/10:30pm 15.0 14.5 10.8 76 2.3 WSW 4 11 2 6 1017.6 1016.1 2.0
18/10:00pm 15.4 15.0 12.9 85 1.4 W 7 17 4 9 1017.0 1015.5 2.0
18/09:30pm 15.8 15.8 13.5 86 1.3 WSW 6 15 3 8 1016.1 1014.6 2.0
18/09:00pm 16.6 16.7 15.5 93 0.7 WSW 9 20 5 11 1015.4 1013.9 2.0
18/08:30pm 17.3 18.2 16.5 95 0.5 SW 7 17 4 9 1014.9 1013.3 2.0
18/08:00pm 17.8 19.5 17.2 96 0.4 SW 4 9 2 5 1014.3 1012.8 2.0
18/07:30pm 18.0 19.3 17.2 95 0.5 WSW 6 13 3 7 1013.6 1012.1 2.0
18/07:00pm 19.0 21.0 17.8 93 0.8 WSW 4 7 2 4 1012.9 1011.3 2.0
18/06:30pm 19.9 21.0 17.9 88 1.3 SW 9 20 5 11 1012.4 1010.9 2.0
18/06:00pm 20.6 22.9 17.8 84 1.8 WSW 2 7 1 4 1012.0 1010.5 2.0
18/05:30pm 20.9 23.0 18.1 84 1.8 SW 4 9 2 5 1011.9 1010.4 2.0
18/05:00pm 21.2 23.1 17.6 80 2.3 NW 4 9 2 5 1011.9 1010.4 2.0
18/04:30pm 22.1 23.8 17.2 74 3.1 NW 4 6 2 3 1011.2 1009.6 2.0
18/04:00pm 22.1 24.7 17.5 75 2.9 CALM 0 4 0 2 1011.1 1009.5 2.0
18/03:30pm 21.1 24.2 18.7 86 1.5 CALM 0 2 0 1 1010.2 1008.7 2.0
18/03:00pm 21.3 23.1 17.5 79 2.4 W 4 6 2 3 1010.8 1009.2 2.0
18/02:30pm 22.2 22.9 16.0 68 3.8 WNW 7 13 4 7 1010.9 1009.3 1.8
18/02:00pm 21.4 22.3 16.1 72 3.3 NNE 6 11 3 6 1011.1 1009.5 1.8
18/01:30pm 22.0 23.5 16.7 72 3.3 NNE 4 11 2 6 1011.2 1009.6 1.8
18/01:00pm 21.4 23.0 17.0 76 2.8 N 4 6 2 3 1011.3 1009.7 1.8
18/12:30pm 22.8 25.0 17.5 72 3.4 SSW 2 9 1 5 1011.3 1009.7 1.8
18/12:00pm 21.9 23.3 17.7 77 2.7 SW 7 13 4 7 1011.7 1010.1 1.8
18/11:30am 22.0 23.8 18.2 79 2.4 WSW 6 20 3 11 1012.1 1010.6 1.8
18/11:13am 24.6 24.8 14.7 54 6.0 WSW 7 13 4 7 1012.9 1011.3 0.0
18/11:00am 26.8 27.3 14.9 48 7.3 WSW 6 13 3 7 1010.9 1009.3 0.0
18/10:30am 27.6 28.4 14.9 45 7.8 NW 4 11 2 6 1010.9 1009.3 0.0
18/10:00am 27.4 27.9 14.1 44 8.1 W 4 9 2 5 1011.2 1009.6 0.0
18/09:30am 23.6 24.9 16.1 62 4.7 WNW 4 7 2 4 1011.4 1009.8 0.0
18/09:00am 26.0 26.2 13.2 45 7.7 N 4 9 2 5 1010.9 1009.3 0.0
18/08:30am 25.4 25.0 12.9 45 7.4 NNE 7 17 4 9 1010.4 1008.9 0.0
18/08:00am 24.2 24.1 13.4 51 6.4 NE 6 9 3 5 1010.3 1008.8 0.0
18/07:30am 23.0 22.7 13.2 54 5.8 NE 7 9 4 5 1010.1 1008.6 0.0
18/07:00am 22.8 22.6 13.0 54 5.8 NE 6 7 3 4 1010.3 1008.8 0.0
18/06:30am 22.0 23.0 13.1 57 5.2 CALM 0 0 0 0 1010.5 1009.0 0.0
18/06:00am 21.1 22.2 13.5 62 4.5 CALM 0 0 0 0 1010.4 1008.9 0.0
18/05:30am 21.2 22.3 13.4 61 4.6 CALM 0 0 0 0 1010.4 1008.9 0.0
18/05:00am 21.3 21.6 13.5 61 4.6 E 4 9 2 5 1010.3 1008.8 0.0
18/04:30am 20.6 20.7 13.8 65 4.0 ENE 6 7 3 4 1010.0 1008.4 0.0
18/04:00am 21.5 21.9 13.7 61 4.6 ESE 4 6 2 3 1010.1 1008.6 0.0
18/03:30am 21.8 22.1 13.4 59 5.0 SE 4 7 2 4 1010.7 1009.1 0.0
18/03:00am 22.0 22.0 13.6 59 5.0 ESE 6 15 3 8 1011.1 1009.5 0.0
18/02:48am 22.0 22.1 13.9 60 4.8 S 6 15 3 8 1010.8 1009.2 0.0
18/02:30am 22.9 22.8 13.4 55 5.6 SW 6 11 3 6 1012.8 1011.2 0.0
18/02:19am 22.6 22.5 13.4 56 5.4 W 6 13 3 7 1013.5 1012.0 0.0
18/02:00am 22.9 23.1 13.1 54 5.8 SSW 4 6 2 3 1011.5 1009.9 0.0
18/01:30am 22.9 23.9 13.1 54 5.8 CALM 0 0 0 0 1011.6 1010.0 0.0
18/01:00am 22.8 23.8 13.3 55 5.6 CALM 0 0 0 0 1011.8 1010.3 0.0
18/12:30am 22.8 23.9 13.6 56 5.5 CALM 0 2 0 1 1012.7 1011.1 0.0
18/12:00am 23.8 24.5 13.4 52 6.2 SW 2 6 1 3 1013.0 1011.4 0.0
 
Date/Time
EDT
Temp
°C
App
Temp
°C
Dew
Point
°C
Rel
Hum
%
Delta-T
°C
Wind Press
QNH
hPa
Press
MSL
hPa
Rain since
9am
mm
Dir  Spd
km/h
Gust
km/h
Spd
kts
Gust
kts
17/11:30pm 23.7 24.8 13.6 53 6.0 CALM 0 0 0 0 1012.9 1011.3 0.0
17/11:00pm 23.8 25.0 13.9 54 5.9 CALM 0 6 0 3 1013.1 1011.5 0.0
17/10:30pm 24.4 24.7 13.3 50 6.6 WSW 4 6 2 3 1013.0 1011.4 0.0
17/10:00pm 24.9 25.5 13.1 48 7.0 WNW 2 4 1 2 1012.8 1011.2 0.0
17/09:30pm 25.1 25.3 13.0 47 7.2 WNW 4 7 2 4 1012.3 1010.8 0.0
17/09:00pm 24.6 25.1 12.9 48 6.9 W 2 4 1 2 1012.0 1010.5 0.0
17/08:30pm 25.5 25.6 12.7 45 7.6 WNW 4 7 2 4 1011.7 1010.1 0.0
17/08:00pm 25.4 25.9 12.9 45 7.4 W 2 4 1 2 1011.3 1009.7 0.0
17/07:30pm 25.5 26.6 13.4 47 7.2 CALM 0 6 0 3 1011.0 1009.4 0.0
17/07:00pm 25.6 26.0 13.8 48 7.1 WNW 4 7 2 4 1010.8 1009.2 0.0
17/06:30pm 25.6 26.5 14.1 49 7.0 W 2 6 1 3 1010.7 1009.1 0.0
17/06:00pm 26.2 26.8 14.3 48 7.3 NW 4 9 2 5 1010.8 1009.2 0.0
17/05:30pm 26.9 27.1 12.9 42 8.4 NNW 4 7 2 4 1010.7 1009.1 0.0
17/05:00pm 26.6 27.7 14.7 48 7.3 NNW 2 6 1 3 1010.7 1009.1 0.0
17/04:30pm 27.1 27.6 14.1 44 7.9 NNW 4 9 2 5 1010.8 1009.2 0.0
17/04:00pm 26.1 27.3 15.8 53 6.4 E 4 9 2 5 1011.3 1009.7 0.0
17/03:30pm 28.7 27.8 12.6 37 9.6 WSW 9 26 5 14 1012.4 1010.9 0.0
17/03:00pm 30.6 30.8 13.0 34 10.7 W 4 9 2 5 1012.1 1010.6 0.0
17/02:30pm 29.2 29.8 14.2 40 9.2 W 4 7 2 4 1011.8 1010.3 0.0
17/02:00pm 29.8 30.1 13.5 36 10.0 NNW 4 7 2 4 1011.4 1009.8 0.0
17/01:30pm 26.6 28.1 15.6 50 6.8 N 2 6 1 3 1010.9 1009.3 0.0
17/01:00pm 25.1 26.3 14.9 53 6.3 NNW 2 4 1 2 1011.8 1010.3 0.0
17/12:30pm 26.1 26.2 13.9 47 7.4 NW 6 11 3 6 1012.2 1010.7 0.0
17/12:00pm 26.0 26.1 13.8 47 7.4 NW 6 15 3 8 1012.0 1010.5 0.0
17/11:30am 25.3 25.4 13.8 49 6.9 NW 6 9 3 5 1011.8 1010.3 0.0
17/11:00am 25.2 25.7 14.0 49 6.8 NW 4 13 2 7 1012.3 1010.8 0.0
17/10:30am 26.0 26.1 14.5 49 7.0 NW 7 24 4 13 1012.7 1011.1 0.0
17/10:00am 25.2 25.6 13.7 49 6.9 WNW 4 11 2 6 1012.7 1011.1 0.0
17/09:30am 27.2 28.3 15.6 49 7.2 NW 4 19 2 10 1012.4 1010.9 0.0
17/09:00am 25.6 25.6 13.5 47 7.3 WSW 6 13 3 7 1012.3 1010.8 0.0
17/08:30am 28.5 27.9 11.6 35 10.0 NW 6 13 3 7 1011.3 1009.7 0.0
17/08:00am 25.7 25.6 12.2 43 7.9 WSW 4 9 2 5 1011.0 1009.4 0.0
17/07:30am 26.7 26.6 10.8 37 9.2 NNW 2 7 1 4 1010.4 1008.9 0.0
17/07:00am 25.9 25.8 10.9 39 8.6 NNE 2 6 1 3 1009.8 1008.2 0.0
17/06:30am 23.9 23.8 10.9 44 7.4 NNE 2 6 1 3 1010.0 1008.4 0.0
17/06:00am 24.6 24.1 10.8 42 7.9 NW 4 7 2 4 1010.8 1009.2 0.0
17/05:30am 25.0 24.1 10.8 41 8.1 NW 6 11 3 6 1011.3 1009.7 0.0
17/05:00am 26.1 25.1 9.0 34 9.6 N 4 15 2 8 1011.0 1009.4 0.0
17/04:30am 27.3 24.9 7.2 28 10.9 NW 9 20 5 11 1011.0 1009.4 0.0
17/04:00am 27.9 26.2 6.1 25 11.7 NNW 4 13 2 7 1010.3 1008.8 0.0
17/03:30am 27.4 26.4 5.6 25 11.6 CALM 0 4 0 2 1010.2 1008.7 0.0
17/03:00am 26.6 25.6 5.5 26 11.1 CALM 0 4 0 2 1010.0 1008.4 0.0
17/02:30am 27.3 25.9 5.6 25 11.5 N 2 9 1 5 1009.9 1008.3 0.0
17/02:00am 25.2 24.5 6.9 31 9.8 CALM 0 0 0 0 1010.2 1008.7 0.0
17/01:30am 25.7 24.5 6.3 29 10.3 ENE 2 4 1 2 1010.8 1009.2 0.0
17/01:00am 26.4 25.1 5.9 27 10.9 NNW 2 4 1 2 1010.8 1009.2 0.0
17/12:30am 27.6 26.1 5.2 24 11.8 ENE 2 4 1 2 1010.9 1009.3 0.0
17/12:00am 25.6 24.3 5.8 28 10.4 NE 2 4 1 2 1011.2 1009.6 0.0
 
Date/Time
EDT
Temp
°C
App
Temp
°C
Dew
Point
°C
Rel
Hum
%
Delta-T
°C
Wind Press
QNH
hPa
Press
MSL
hPa
Rain since
9am
mm
Dir  Spd
km/h
Gust
km/h
Spd
kts
Gust
kts
16/11:30pm 24.8 23.1 6.1 30 9.9 ENE 4 7 2 4 1011.3 1009.7 0.0
16/11:00pm 25.4 22.9 6.6 30 10.0 E 9 17 5 9 1011.8 1010.3 0.0
16/10:30pm 25.6 22.6 5.8 28 10.4 ENE 11 20 6 11 1012.2 1010.7 0.0
16/10:00pm 25.3 22.5 5.0 27 10.5 E 9 19 5 10 1012.5 1011.0 0.0
16/09:30pm 24.8 21.5 4.5 27 10.4 ENE 11 20 6 11 1012.3 1010.8 0.0
16/09:00pm 24.2 20.0 5.5 30 9.7 ENE 17 30 9 16 1012.4 1010.9 0.0
16/08:30pm 23.9 19.6 5.3 30 9.6 ENE 17 30 9 16 1012.5 1011.0 0.0
16/08:00pm 22.3 20.1 9.5 44 7.1 E 11 19 6 10 1013.6 1012.1 0.0
16/07:30pm 21.1 19.9 14.0 64 4.2 E 13 20 7 11 1013.7 1012.2 0.0
16/07:00pm 20.9 19.6 13.6 63 4.3 E 13 19 7 10 1014.0 1012.5 0.0
16/06:30pm 20.8 21.0 14.2 66 3.9 ESE 6 9 3 5 1014.2 1012.7 0.0
16/06:06pm 20.6 20.3 15.4 72 3.2 ENE 11 20 6 11 1015.5 1014.0 0.0
16/06:00pm 20.6 19.9 15.4 72 3.2 E 13 20 7 11 1013.4 1011.8 0.0
16/05:30pm 21.2 22.3 14.6 66 4.0 E 2 6 1 3 1015.1 1013.5 0.0
16/05:00pm 21.4 22.0 15.3 68 3.7 ESE 6 9 3 5 1014.6 1013.1 0.0
16/04:30pm 21.5 22.0 15.1 67 3.9 ESE 6 11 3 6 1014.3 1012.8 0.0
16/04:00pm 20.6 20.7 15.6 73 3.0 ESE 9 17 5 9 1014.3 1012.8 0.0
16/03:30pm 20.7 21.0 15.9 74 2.9 SE 9 22 5 12 1013.9 1012.4 0.0
16/03:00pm 22.1 21.9 15.7 67 3.9 S 11 30 6 16 1013.6 1012.1 0.0
16/02:30pm 25.7 26.4 16.0 55 6.1 S 7 15 4 8 1013.0 1011.4 0.0
16/02:00pm 28.5 29.9 16.4 48 7.7 SSW 4 9 2 5 1012.8 1011.2 0.0
16/01:30pm 30.8 32.1 17.1 43 8.8 SSW 6 11 3 6 1012.9 1011.3 0.0
16/01:00pm 29.9 31.3 17.4 47 8.1 SSE 6 9 3 5 1013.0 1011.4 0.0
16/12:30pm 30.1 31.7 17.9 48 7.9 SSW 6 9 3 5 1013.1 1011.5 0.0
16/12:00pm 29.0 30.7 17.2 49 7.6 SE 4 7 2 4 1013.0 1011.4 0.0
16/11:30am 30.0 32.1 18.1 49 7.8 SSW 4 7 2 4 1013.0 1011.4 0.0

Latest Capital City Observations: Canberra | Sydney | Melbourne | Brisbane | Adelaide | Perth | Hobart | Darwin

Other Formats:

Comma delimited format used in spreadsheet applications
http://www.bom.gov.au/fwo/IDV60901/IDV60901.94872.axf

JavaScript Object Notation format (JSON) in row-major order
http://www.bom.gov.au/fwo/IDV60901/IDV60901.94872.json